createdAt,value
2022-08-17T00:00:33.261Z,86.55
2022-08-17T00:03:13.576Z,87.25
2022-08-17T00:05:53.834Z,89.56
2022-08-17T00:08:26.568Z,91.69
2022-08-17T00:10:55.202Z,91.05
2022-08-17T00:13:29.519Z,90.80
2022-08-17T00:16:09.984Z,91.27
2022-08-17T00:19:02.434Z,91.57
2022-08-17T00:21:25.224Z,91.14
2022-08-17T00:23:53.629Z,91.14
2022-08-17T00:26:43.685Z,91.42
2022-08-17T00:29:09.952Z,91.97
2022-08-17T00:31:47.350Z,90.45
2022-08-17T00:34:14.318Z,89.92
2022-08-17T00:36:41.263Z,90.90
2022-08-17T00:39:08.193Z,90.28
2022-08-17T00:41:35.902Z,89.57
2022-08-17T00:44:05.579Z,90.08
2022-08-17T00:46:42.145Z,90.51
2022-08-17T00:49:10.934Z,90.01
2022-08-17T00:51:43.757Z,90.37
2022-08-17T00:54:24.751Z,90.31
2022-08-17T00:57:11.677Z,90.21
2022-08-17T00:59:47.081Z,90.97
2022-08-17T01:02:34.343Z,90.61
2022-08-17T01:05:09.570Z,90.28
2022-08-17T01:07:38.100Z,89.14
2022-08-17T01:10:59.175Z,88.69
2022-08-17T01:12:56.943Z,87.85
2022-08-17T01:15:23.983Z,87.81
2022-08-17T01:17:51.089Z,88.16
2022-08-17T01:20:18.471Z,88.12
2022-08-17T01:22:45.806Z,89.55
2022-08-17T01:25:13.782Z,90.29
2022-08-17T01:27:42.847Z,90.77
2022-08-17T01:30:58.377Z,90.90
2022-08-17T01:32:59.829Z,91.01
2022-08-17T01:35:26.918Z,91.58
2022-08-17T01:37:53.936Z,92.08
2022-08-17T01:40:33.780Z,91.36
2022-08-17T01:43:08.294Z,91.02
2022-08-17T01:45:42.922Z,91.71
2022-08-17T01:48:11.851Z,91.76
2022-08-17T01:50:44.296Z,91.93
2022-08-17T01:53:18.324Z,92.07
2022-08-17T01:55:53.584Z,92.57
2022-08-17T01:58:21.675Z,91.74
2022-08-17T02:01:00.425Z,91.55
2022-08-17T02:03:29.904Z,91.07
2022-08-17T02:05:57.068Z,90.56
2022-08-17T02:08:37.175Z,90.85
2022-08-17T02:11:14.731Z,91.10
2022-08-17T02:13:43.759Z,91.55
2022-08-17T02:16:11.272Z,91.94
2022-08-17T02:18:38.629Z,92.32
2022-08-17T02:21:06.952Z,91.25
2022-08-17T02:23:40.480Z,90.06
2022-08-17T02:26:07.914Z,88.28
2022-08-17T02:28:35.311Z,89.87
2022-08-17T02:31:09.397Z,92.05
2022-08-17T02:33:42.955Z,93.23
2022-08-17T02:36:12.876Z,94.30
2022-08-17T02:38:41.694Z,93.97
2022-08-17T02:41:09.147Z,94.21
2022-08-17T02:43:36.597Z,95.56
2022-08-17T02:46:03.611Z,96.15
2022-08-17T02:48:32.030Z,96.20
2022-08-17T02:51:00.732Z,95.47
2022-08-17T02:53:35.507Z,94.38
2022-08-17T02:56:03.891Z,94.08
2022-08-17T02:58:35.442Z,93.83
2022-08-17T03:01:08.872Z,93.68
2022-08-17T03:03:37.826Z,93.21
2022-08-17T03:06:07.634Z,93.01
2022-08-17T03:08:36.350Z,92.31
2022-08-17T03:11:03.763Z,91.06
2022-08-17T03:13:30.952Z,89.85
2022-08-17T03:15:58.832Z,89.38
2022-08-17T03:18:27.903Z,86.30
2022-08-17T03:20:58.862Z,86.36
2022-08-17T03:23:27.636Z,85.96
2022-08-17T03:25:58.230Z,86.18
2022-08-17T03:28:26.310Z,85.36
2022-08-17T03:30:53.483Z,84.50
2022-08-17T03:33:20.665Z,86.59
2022-08-17T03:35:47.946Z,82.92
2022-08-17T03:38:17.038Z,82.42
2022-08-17T03:40:57.810Z,83.85
2022-08-17T03:43:31.625Z,84.33
2022-08-17T03:46:28.582Z,82.84
2022-08-17T03:49:22.612Z,84.85
2022-08-17T03:52:08.668Z,83.55
2022-08-17T03:54:53.810Z,84.00
2022-08-17T03:57:20.800Z,84.27
2022-08-17T03:59:48.311Z,85.90
2022-08-17T04:02:34.543Z,85.50
2022-08-17T04:05:02.089Z,87.74
2022-08-17T04:07:31.153Z,87.18
2022-08-17T04:09:59.348Z,84.60
2022-08-17T04:12:30.992Z,85.45
2022-08-17T04:14:58.916Z,85.65
2022-08-17T04:17:28.822Z,85.89
2022-08-17T04:19:56.762Z,85.09
2022-08-17T04:22:33.235Z,85.54
2022-08-17T04:25:17.554Z,87.58
2022-08-17T04:27:44.498Z,86.01
2022-08-17T04:30:12.799Z,85.90
2022-08-17T04:33:06.018Z,86.79
2022-08-17T04:35:56.948Z,86.30
2022-08-17T04:38:28.606Z,85.91
2022-08-17T04:41:17.017Z,85.08
2022-08-17T04:46:26.188Z,83.31
2022-08-17T04:48:56.365Z,83.01
2022-08-17T04:51:35.041Z,82.59
2022-08-17T04:54:10.541Z,82.63
2022-08-17T04:56:38.562Z,82.36
2022-08-17T04:59:10.634Z,81.52
2022-08-17T05:01:40.086Z,81.10
2022-08-17T05:04:20.920Z,80.83
2022-08-17T05:06:55.114Z,80.88
2022-08-17T05:09:22.360Z,80.81
2022-08-17T05:11:51.351Z,80.54
2022-08-17T05:14:18.348Z,80.85
2022-08-17T05:16:48.187Z,80.64
2022-08-17T05:19:15.086Z,79.91
2022-08-17T05:21:42.048Z,79.82
2022-08-17T05:24:38.623Z,79.64
2022-08-17T05:26:55.993Z,78.75
2022-08-17T05:29:22.903Z,78.94
2022-08-17T05:32:38.289Z,78.40
2022-08-17T05:35:00.983Z,79.22
2022-08-17T05:37:28.323Z,78.00
2022-08-17T05:39:55.373Z,77.79
2022-08-17T05:42:22.560Z,78.78
2022-08-17T05:44:49.515Z,79.33
2022-08-17T05:47:18.339Z,79.21
2022-08-17T05:49:45.504Z,79.45
2022-08-17T05:52:55.282Z,79.76
2022-08-17T05:55:41.215Z,79.26
2022-08-17T05:58:57.107Z,79.29
2022-08-17T06:01:52.687Z,79.79
2022-08-17T06:04:47.253Z,79.97
2022-08-17T06:07:49.533Z,80.49
2022-08-17T06:11:10.665Z,80.55
2022-08-17T06:14:00.486Z,81.53
2022-08-17T06:16:36.283Z,81.22
2022-08-17T06:19:13.481Z,80.61
2022-08-17T06:21:45.325Z,81.32
2022-08-17T06:24:48.050Z,82.72
2022-08-17T06:27:53.577Z,83.54
2022-08-17T06:30:28.630Z,83.46
2022-08-17T06:33:29.682Z,88.71
2022-08-17T06:36:30.476Z,87.74
2022-08-17T06:39:27.595Z,88.25
2022-08-17T06:43:05.150Z,88.14
2022-08-17T06:45:31.743Z,87.28
2022-08-17T06:48:13.418Z,86.72
2022-08-17T06:50:49.630Z,86.15
2022-08-17T06:53:38.912Z,85.10
2022-08-17T06:56:09.772Z,85.29
2022-08-17T06:58:40.268Z,85.08
2022-08-17T07:01:25.104Z,85.28
2022-08-17T07:04:14.302Z,85.95
2022-08-17T07:06:49.786Z,89.21
2022-08-17T07:09:32.813Z,89.58
2022-08-17T07:12:15.038Z,91.17
2022-08-17T07:15:26.048Z,94.46
2022-08-17T07:17:53.170Z,95.01
2022-08-17T07:20:22.557Z,95.24
2022-08-17T07:23:34.451Z,94.55
2022-08-17T07:26:09.307Z,95.33
2022-08-17T07:28:36.807Z,94.46
2022-08-17T07:31:05.075Z,95.12
2022-08-17T07:33:36.885Z,94.78
2022-08-17T07:36:04.303Z,93.93
2022-08-17T07:38:35.707Z,92.11
2022-08-17T07:41:07.619Z,91.36
2022-08-17T07:43:40.830Z,91.63
2022-08-17T07:47:07.834Z,91.98
2022-08-17T07:49:46.277Z,91.69
2022-08-17T07:52:48.174Z,91.60
2022-08-17T07:55:34.865Z,90.91
2022-08-17T07:58:03.373Z,92.46
2022-08-17T08:00:32.689Z,90.44
2022-08-17T08:03:11.713Z,90.59
2022-08-17T08:05:54.403Z,91.39
2022-08-17T08:08:38.056Z,91.56
2022-08-17T08:11:18.091Z,92.46
2022-08-17T08:13:46.020Z,90.72
2022-08-17T08:16:24.672Z,90.64
2022-08-17T08:19:01.289Z,91.22
2022-08-17T08:21:43.695Z,90.00
2022-08-17T08:24:24.681Z,89.70
2022-08-17T08:27:11.604Z,89.47
2022-08-17T08:30:14.533Z,90.40
2022-08-17T08:33:08.995Z,93.36
2022-08-17T08:36:56.859Z,96.54
2022-08-17T08:39:23.339Z,94.82
2022-08-17T08:42:01.700Z,93.70
2022-08-17T08:44:59.702Z,95.46
2022-08-17T08:47:35.377Z,93.15
2022-08-17T08:50:37.321Z,91.73
2022-08-17T08:54:33.478Z,91.56
2022-08-17T08:57:34.356Z,88.96
2022-08-17T09:00:21.641Z,89.47
2022-08-17T09:03:52.683Z,86.68
2022-08-17T09:06:37.314Z,86.47
2022-08-17T09:09:46.631Z,86.09
2022-08-17T09:12:41.613Z,85.81
2022-08-17T09:15:34.867Z,85.10
2022-08-17T09:18:59.896Z,82.08
2022-08-17T09:21:33.891Z,83.29
2022-08-17T09:24:36.331Z,85.84
2022-08-17T09:27:30.643Z,90.89
2022-08-17T09:30:07.904Z,93.51
2022-08-17T09:32:42.207Z,93.75
2022-08-17T09:35:36.490Z,96.30
2022-08-17T09:38:15.252Z,95.49
2022-08-17T09:41:14.313Z,94.00
2022-08-17T09:43:54.212Z,92.86
2022-08-17T09:46:50.945Z,91.34
2022-08-17T09:50:00.852Z,88.27
2022-08-17T09:52:29.821Z,88.84
2022-08-17T09:54:58.670Z,88.68
2022-08-17T09:57:50.717Z,87.59
2022-08-17T10:00:34.030Z,86.63
2022-08-17T10:04:06.267Z,86.05
2022-08-17T10:07:04.427Z,86.23
2022-08-17T10:09:49.560Z,85.08
2022-08-17T10:12:47.058Z,84.85
2022-08-17T10:16:07.775Z,82.29
2022-08-17T10:19:20.739Z,81.93
2022-08-17T10:22:14.590Z,82.13
2022-08-17T10:25:24.189Z,80.88
2022-08-17T10:28:01.873Z,81.01
2022-08-17T10:30:33.689Z,81.68
2022-08-17T10:33:15.386Z,79.99
2022-08-17T10:36:01.456Z,80.60
2022-08-17T10:39:16.333Z,81.10
2022-08-17T10:41:50.445Z,81.41
2022-08-17T10:44:41.291Z,82.17
2022-08-17T10:47:19.087Z,79.75
2022-08-17T10:49:56.018Z,79.15
2022-08-17T10:52:24.983Z,77.89
2022-08-17T10:54:58.204Z,77.92
2022-08-17T10:57:34.594Z,77.69
2022-08-17T11:00:27.031Z,78.25
2022-08-17T11:02:57.446Z,79.42
2022-08-17T11:05:54.077Z,79.48
2022-08-17T11:08:47.738Z,79.51
2022-08-17T11:11:56.541Z,77.82
2022-08-17T11:14:48.446Z,77.55
2022-08-17T11:17:36.624Z,76.18
2022-08-17T11:20:09.368Z,76.08
2022-08-17T11:23:01.180Z,75.37
2022-08-17T11:25:48.672Z,76.74
2022-08-17T11:28:24.357Z,76.22
2022-08-17T11:30:57.135Z,75.74
2022-08-17T11:33:30.489Z,75.54
2022-08-17T11:36:24.806Z,75.29
2022-08-17T11:39:36.290Z,74.80
2022-08-17T11:42:46.545Z,76.25
2022-08-17T11:45:31.702Z,74.79
2022-08-17T11:48:41.835Z,75.15
2022-08-17T11:51:34.467Z,75.85
2022-08-17T11:54:33.869Z,75.52
2022-08-17T11:57:27.295Z,74.94
2022-08-17T11:59:58.442Z,76.21
2022-08-17T12:02:34.838Z,75.38
2022-08-17T12:05:17.271Z,75.77
2022-08-17T12:07:51.896Z,76.65
2022-08-17T12:10:31.629Z,76.25
2022-08-17T12:13:11.442Z,74.54
2022-08-17T12:15:48.727Z,74.78
2022-08-17T12:18:31.750Z,73.50
2022-08-17T12:21:04.485Z,72.33
2022-08-17T12:23:52.311Z,72.99
2022-08-17T12:26:31.005Z,73.29
2022-08-17T12:29:09.249Z,75.01
2022-08-17T12:31:49.169Z,73.59
2022-08-17T12:34:27.123Z,73.87
2022-08-17T12:37:24.836Z,71.46
2022-08-17T12:39:56.261Z,71.41
2022-08-17T12:42:37.775Z,71.19
2022-08-17T12:45:07.711Z,70.09
2022-08-17T12:47:38.042Z,69.63
2022-08-17T12:50:28.820Z,68.25
2022-08-17T12:53:01.597Z,67.50
2022-08-17T12:55:36.636Z,67.83
2022-08-17T12:58:04.241Z,68.56
2022-08-17T13:00:47.623Z,66.40
2022-08-17T13:03:25.494Z,65.47
2022-08-17T13:05:52.410Z,64.09
2022-08-17T13:08:29.888Z,62.94
2022-08-17T13:11:11.125Z,62.02
2022-08-17T13:13:50.849Z,60.75
2022-08-17T13:16:30.991Z,61.45
2022-08-17T13:19:15.831Z,62.05
2022-08-17T13:21:54.145Z,60.60
2022-08-17T13:24:27.949Z,58.75
2022-08-17T13:27:10.354Z,58.54
2022-08-17T13:29:53.534Z,58.77
2022-08-17T13:32:34.298Z,57.91
2022-08-17T13:35:15.496Z,56.45
2022-08-17T13:38:05.428Z,57.67
2022-08-17T13:40:53.183Z,59.48
2022-08-17T13:43:45.587Z,59.25
2022-08-17T13:46:29.314Z,56.52
2022-08-17T13:49:05.296Z,56.08
2022-08-17T13:51:50.526Z,57.16
2022-08-17T13:54:32.881Z,54.87
2022-08-17T13:57:06.859Z,55.30
2022-08-17T13:59:53.727Z,53.87
2022-08-17T14:02:25.952Z,53.30
2022-08-17T14:04:57.900Z,53.47
2022-08-17T14:07:34.778Z,51.07
2022-08-17T14:10:12.142Z,51.39
2022-08-17T14:12:42.806Z,51.45
2022-08-17T14:15:12.848Z,51.63
2022-08-17T14:17:39.977Z,52.63
2022-08-17T14:20:12.365Z,52.30
2022-08-17T14:22:44.562Z,52.28
2022-08-17T14:25:14.672Z,52.16
2022-08-17T14:27:53.362Z,52.81
2022-08-17T14:30:29.117Z,55.38
2022-08-17T14:32:58.335Z,58.30
2022-08-17T14:35:27.961Z,59.60
2022-08-17T14:37:56.259Z,58.33
2022-08-17T14:40:24.914Z,58.63
2022-08-17T14:42:55.212Z,58.58
2022-08-17T14:45:29.894Z,57.71
2022-08-17T14:48:04.157Z,56.21
2022-08-17T14:50:35.180Z,56.99
2022-08-17T14:53:04.619Z,56.60
2022-08-17T14:55:32.507Z,56.09
2022-08-17T14:57:59.790Z,55.87
2022-08-17T15:00:27.016Z,55.47
2022-08-17T15:02:58.245Z,57.12
2022-08-17T15:05:31.560Z,54.02
2022-08-17T15:08:03.020Z,54.81
2022-08-17T15:10:31.330Z,54.71
2022-08-17T15:13:00.433Z,53.18
2022-08-17T15:15:28.724Z,53.68
2022-08-17T15:17:55.899Z,54.70
2022-08-17T15:20:28.492Z,53.02
2022-08-17T15:22:57.512Z,53.77
2022-08-17T15:25:31.644Z,53.10
2022-08-17T15:27:59.661Z,53.50
2022-08-17T15:30:26.959Z,54.28
2022-08-17T15:32:55.482Z,52.60
2022-08-17T15:35:31.094Z,52.96
2022-08-17T15:38:11.316Z,53.99
2022-08-17T15:40:48.127Z,52.48
2022-08-17T15:43:27.619Z,51.92
2022-08-17T15:46:12.542Z,50.96
2022-08-17T15:48:42.819Z,52.46
2022-08-17T15:51:28.903Z,51.35
2022-08-17T15:54:19.280Z,52.36
2022-08-17T15:56:50.229Z,52.15
2022-08-17T15:59:17.200Z,52.27
2022-08-17T16:03:13.360Z,52.71
2022-08-17T16:04:31.798Z,51.94
2022-08-17T16:07:00.127Z,53.33
2022-08-17T16:09:27.868Z,53.86
2022-08-17T16:11:56.098Z,54.42
2022-08-17T16:14:30.236Z,52.52
2022-08-17T16:17:01.156Z,53.54
2022-08-17T16:19:28.101Z,52.55
2022-08-17T16:21:55.066Z,52.14
2022-08-17T16:24:22.121Z,51.81
2022-08-17T16:26:49.060Z,50.80
2022-08-17T16:29:16.039Z,51.49
2022-08-17T16:31:43.345Z,51.46
2022-08-17T16:34:17.411Z,51.50
2022-08-17T16:36:54.869Z,51.13
2022-08-17T16:39:34.310Z,52.25
2022-08-17T16:42:02.872Z,52.02
2022-08-17T16:44:31.925Z,51.84
2022-08-17T16:47:01.248Z,52.14
2022-08-17T16:49:36.276Z,52.10
2022-08-17T16:52:09.831Z,51.93
2022-08-17T16:54:44.117Z,50.68
2022-08-17T16:57:13.715Z,53.84
2022-08-17T16:59:44.944Z,54.60
2022-08-17T17:02:24.625Z,52.83
2022-08-17T17:05:30.735Z,53.59
2022-08-17T17:08:08.857Z,54.71
2022-08-17T17:10:43.264Z,53.86
2022-08-17T17:13:36.661Z,52.82
2022-08-17T17:16:23.953Z,52.87
2022-08-17T17:19:35.277Z,54.85
2022-08-17T17:22:08.715Z,56.64
2022-08-17T17:25:04.664Z,57.40
2022-08-17T17:27:47.306Z,58.38
2022-08-17T17:30:21.326Z,56.95
2022-08-17T17:32:59.905Z,57.32
2022-08-17T17:35:54.407Z,56.83
2022-08-17T17:38:29.000Z,56.83
2022-08-17T17:41:04.549Z,56.14
2022-08-17T17:43:39.795Z,58.23
2022-08-17T17:46:27.997Z,59.36
2022-08-17T17:49:00.115Z,60.63
2022-08-17T17:52:18.907Z,61.76
2022-08-17T17:55:36.876Z,61.58
2022-08-17T17:58:13.322Z,62.05
2022-08-17T18:01:10.101Z,62.03
2022-08-17T18:04:21.130Z,60.51
2022-08-17T18:07:12.342Z,63.18
2022-08-17T18:10:00.894Z,63.58
2022-08-17T18:12:44.245Z,63.96
2022-08-17T18:15:25.476Z,65.76
2022-08-17T18:18:22.130Z,66.57
2022-08-17T18:20:53.744Z,68.08
2022-08-17T18:23:28.044Z,68.38
2022-08-17T18:25:57.033Z,68.18
2022-08-17T18:28:43.939Z,67.97
2022-08-17T18:31:15.048Z,67.17
2022-08-17T18:33:53.393Z,67.64
2022-08-17T18:36:36.430Z,67.81
2022-08-17T18:39:29.820Z,69.98
2022-08-17T18:42:00.194Z,70.49
2022-08-17T18:44:29.869Z,70.93
2022-08-17T18:47:23.697Z,67.94
2022-08-17T18:50:20.437Z,68.88
2022-08-17T18:52:48.620Z,68.45
2022-08-17T18:55:27.734Z,67.97
2022-08-17T18:58:14.486Z,68.19
2022-08-17T19:00:48.580Z,67.73
2022-08-17T19:03:18.695Z,67.53
2022-08-17T19:05:57.164Z,67.50
2022-08-17T19:08:30.239Z,67.60
2022-08-17T19:11:23.914Z,65.33
2022-08-17T19:14:02.512Z,66.97
2022-08-17T19:16:46.321Z,67.92
2022-08-17T19:19:30.798Z,68.14
2022-08-17T19:22:28.702Z,70.05
2022-08-17T19:25:12.588Z,71.74
2022-08-17T19:27:58.238Z,72.45
2022-08-17T19:30:25.803Z,72.33
2022-08-17T19:32:53.138Z,70.26
2022-08-17T19:35:26.946Z,70.77
2022-08-17T19:38:39.858Z,68.61
2022-08-17T19:41:42.539Z,68.81
2022-08-17T19:44:16.655Z,67.57
2022-08-17T19:47:02.545Z,68.34
2022-08-17T19:49:51.139Z,68.09
2022-08-17T19:52:37.534Z,66.98
2022-08-17T19:55:43.480Z,66.52
2022-08-17T19:58:49.730Z,66.81
2022-08-17T20:01:46.747Z,67.75
2022-08-17T20:04:36.912Z,68.36
2022-08-17T20:07:11.199Z,68.98
2022-08-17T20:09:58.520Z,69.67
2022-08-17T20:12:31.852Z,70.90
2022-08-17T20:15:10.221Z,70.83
2022-08-17T20:17:44.004Z,72.05
2022-08-17T20:20:46.789Z,72.00
2022-08-17T20:23:37.730Z,72.21
2022-08-17T20:26:19.795Z,72.50
2022-08-17T20:29:16.605Z,71.18
2022-08-17T20:31:52.448Z,70.68
2022-08-17T20:34:38.060Z,70.46
2022-08-17T20:37:31.743Z,71.63
2022-08-17T20:39:58.676Z,71.72
2022-08-17T20:42:27.101Z,71.09
2022-08-17T20:45:05.586Z,70.59
2022-08-17T20:48:21.592Z,71.75
2022-08-17T20:50:51.686Z,71.61
2022-08-17T20:53:46.979Z,72.21
2022-08-17T20:56:48.947Z,72.45
2022-08-17T20:59:25.471Z,72.33
2022-08-17T21:02:18.829Z,72.80
2022-08-17T21:04:54.905Z,73.18
2022-08-17T21:07:43.392Z,73.24
2022-08-17T21:10:26.670Z,74.05
2022-08-17T21:13:13.453Z,73.66
2022-08-17T21:15:57.454Z,73.93
2022-08-17T21:19:04.418Z,73.71
2022-08-17T21:21:58.185Z,74.71
2022-08-17T21:25:33.226Z,76.26
2022-08-17T21:28:37.152Z,76.31
2022-08-17T21:31:45.359Z,76.37
2022-08-17T21:34:45.238Z,76.58
2022-08-17T21:37:24.199Z,76.12
2022-08-17T21:40:18.147Z,76.76
2022-08-17T21:43:00.470Z,76.91
2022-08-17T21:45:38.825Z,77.55
2022-08-17T21:48:20.383Z,77.29
2022-08-17T21:51:18.956Z,76.63
2022-08-17T21:53:52.107Z,76.22
2022-08-17T21:56:40.834Z,76.42
2022-08-17T21:59:37.647Z,75.62
2022-08-17T22:02:22.727Z,75.26
2022-08-17T22:05:06.712Z,75.28
2022-08-17T22:07:40.376Z,75.47
2022-08-17T22:10:49.032Z,74.95
2022-08-17T22:13:24.120Z,74.19
2022-08-17T22:16:28.073Z,74.08
2022-08-17T22:18:58.956Z,73.74
2022-08-17T22:21:26.615Z,74.21
2022-08-17T22:24:07.739Z,73.96
2022-08-17T22:27:03.565Z,74.47
2022-08-17T22:29:59.986Z,74.94
2022-08-17T22:32:37.300Z,74.86
2022-08-17T22:35:35.964Z,75.30
2022-08-17T22:38:21.380Z,75.19
2022-08-17T22:40:53.801Z,75.53
2022-08-17T22:43:26.437Z,75.44
2022-08-17T22:45:58.023Z,75.85
2022-08-17T22:48:28.753Z,76.95
2022-08-17T22:51:19.612Z,76.18
2022-08-17T22:54:14.126Z,77.73
2022-08-17T22:57:15.212Z,77.33
2022-08-17T22:59:55.623Z,77.48
2022-08-17T23:02:35.015Z,77.69
2022-08-17T23:05:14.252Z,77.58
2022-08-17T23:07:42.500Z,78.41
2022-08-17T23:10:12.059Z,79.04
2022-08-17T23:12:39.789Z,79.62
2022-08-17T23:15:16.008Z,80.21
2022-08-17T23:17:44.486Z,79.01
2022-08-17T23:20:15.539Z,79.03
2022-08-17T23:22:52.768Z,79.67
2022-08-17T23:25:28.181Z,79.00
2022-08-17T23:27:58.445Z,79.92
2022-08-17T23:30:28.598Z,80.86
2022-08-17T23:32:56.542Z,79.32
2022-08-17T23:35:40.369Z,79.98
2022-08-17T23:38:12.837Z,79.56
2022-08-17T23:40:40.926Z,82.05
2022-08-17T23:43:24.801Z,82.32
2022-08-17T23:45:59.739Z,84.11
2022-08-17T23:48:35.245Z,83.51
2022-08-17T23:51:07.309Z,84.91
2022-08-17T23:53:36.691Z,86.39
2022-08-17T23:56:10.425Z,86.20
2022-08-17T23:58:42.269Z,86.48
